sensor_id;sensor_type;location;lat;lon;timestamp;temperature;humidity
29201;DHT22;16244;51.956;12.980;2023-07-30T00:01:15;15.90;99.90
29201;DHT22;16244;51.956;12.980;2023-07-30T00:03:42;15.80;99.90
29201;DHT22;16244;51.956;12.980;2023-07-30T00:06:10;15.70;99.90
29201;DHT22;16244;51.956;12.980;2023-07-30T00:08:37;15.50;99.90
29201;DHT22;16244;51.956;12.980;2023-07-30T00:11:05;15.30;99.90
29201;DHT22;16244;51.956;12.980;2023-07-30T00:13:32;15.30;99.90
29201;DHT22;16244;51.956;12.980;2023-07-30T00:16:01;15.20;99.90
29201;DHT22;16244;51.956;12.980;2023-07-30T00:18:28;15.30;99.90
29201;DHT22;16244;51.956;12.980;2023-07-30T00:20:56;15.40;99.90
29201;DHT22;16244;51.956;12.980;2023-07-30T00:23:23;15.40;99.90
29201;DHT22;16244;51.956;12.980;2023-07-30T00:25:51;15.50;99.90
29201;DHT22;16244;51.956;12.980;2023-07-30T00:28:18;15.50;99.90
29201;DHT22;16244;51.956;12.980;2023-07-30T00:30:46;15.50;99.90
29201;DHT22;16244;51.956;12.980;2023-07-30T00:33:14;15.60;99.90
29201;DHT22;16244;51.956;12.980;2023-07-30T00:35:42;15.50;99.90
29201;DHT22;16244;51.956;12.980;2023-07-30T00:38:10;15.50;99.90
29201;DHT22;16244;51.956;12.980;2023-07-30T00:40:40;15.40;99.90
29201;DHT22;16244;51.956;12.980;2023-07-30T00:43:07;15.40;99.90
29201;DHT22;16244;51.956;12.980;2023-07-30T00:45:35;15.30;99.90
29201;DHT22;16244;51.956;12.980;2023-07-30T00:48:03;15.40;99.90
29201;DHT22;16244;51.956;12.980;2023-07-30T00:50:33;15.40;99.90
29201;DHT22;16244;51.956;12.980;2023-07-30T00:53:01;15.50;99.90
29201;DHT22;16244;51.956;12.980;2023-07-30T00:55:28;15.60;99.90
29201;DHT22;16244;51.956;12.980;2023-07-30T00:57:56;15.60;99.90
29201;DHT22;16244;51.956;12.980;2023-07-30T01:00:24;15.60;99.90
29201;DHT22;16244;51.956;12.980;2023-07-30T01:02:53;15.60;99.90
29201;DHT22;16244;51.956;12.980;2023-07-30T01:05:20;15.60;99.90
29201;DHT22;16244;51.956;12.980;2023-07-30T01:07:52;15.60;99.90
29201;DHT22;16244;51.956;12.980;2023-07-30T01:10:20;15.60;99.90
29201;DHT22;16244;51.956;12.980;2023-07-30T01:12:48;15.50;99.90
29201;DHT22;16244;51.956;12.980;2023-07-30T01:15:16;15.50;99.90
29201;DHT22;16244;51.956;12.980;2023-07-30T01:17:44;15.50;99.90
29201;DHT22;16244;51.956;12.980;2023-07-30T01:20:12;15.40;99.90
29201;DHT22;16244;51.956;12.980;2023-07-30T01:22:41;15.40;99.90
29201;DHT22;16244;51.956;12.980;2023-07-30T01:25:08;15.40;99.90
29201;DHT22;16244;51.956;12.980;2023-07-30T01:27:39;15.50;99.90
29201;DHT22;16244;51.956;12.980;2023-07-30T01:30:13;15.40;99.90
29201;DHT22;16244;51.956;12.980;2023-07-30T01:32:41;15.40;99.90
29201;DHT22;16244;51.956;12.980;2023-07-30T01:35:09;15.30;99.90
29201;DHT22;16244;51.956;12.980;2023-07-30T01:37:38;15.30;99.90
29201;DHT22;16244;51.956;12.980;2023-07-30T01:40:10;15.30;99.90
29201;DHT22;16244;51.956;12.980;2023-07-30T01:42:38;15.20;99.90
29201;DHT22;16244;51.956;12.980;2023-07-30T01:45:06;15.20;99.90
29201;DHT22;16244;51.956;12.980;2023-07-30T01:47:34;15.20;99.90
29201;DHT22;16244;51.956;12.980;2023-07-30T01:50:01;15.20;99.90
29201;DHT22;16244;51.956;12.980;2023-07-30T01:52:29;15.30;99.90
29201;DHT22;16244;51.956;12.980;2023-07-30T01:54:56;15.30;99.90
29201;DHT22;16244;51.956;12.980;2023-07-30T01:57:26;15.20;99.90
29201;DHT22;16244;51.956;12.980;2023-07-30T01:59:53;15.30;99.90
29201;DHT22;16244;51.956;12.980;2023-07-30T02:02:21;15.20;99.90
29201;DHT22;16244;51.956;12.980;2023-07-30T02:04:48;15.30;99.90
29201;DHT22;16244;51.956;12.980;2023-07-30T02:07:16;15.30;99.90
29201;DHT22;16244;51.956;12.980;2023-07-30T02:09:43;15.30;99.90
29201;DHT22;16244;51.956;12.980;2023-07-30T02:12:10;15.20;99.90
29201;DHT22;16244;51.956;12.980;2023-07-30T02:14:39;15.20;99.90
29201;DHT22;16244;51.956;12.980;2023-07-30T02:17:07;15.20;99.90
29201;DHT22;16244;51.956;12.980;2023-07-30T02:19:34;15.20;99.90
29201;DHT22;16244;51.956;12.980;2023-07-30T02:22:02;15.20;99.90
29201;DHT22;16244;51.956;12.980;2023-07-30T02:24:29;15.20;99.90
29201;DHT22;16244;51.956;12.980;2023-07-30T02:26:57;15.20;99.90
29201;DHT22;16244;51.956;12.980;2023-07-30T02:29:24;15.10;99.90
29201;DHT22;16244;51.956;12.980;2023-07-30T02:31:53;15.20;99.90
29201;DHT22;16244;51.956;12.980;2023-07-30T02:34:21;15.10;99.90
29201;DHT22;16244;51.956;12.980;2023-07-30T02:36:49;15.10;99.90
29201;DHT22;16244;51.956;12.980;2023-07-30T02:39:16;15.20;99.90
29201;DHT22;16244;51.956;12.980;2023-07-30T02:41:44;15.20;99.90
29201;DHT22;16244;51.956;12.980;2023-07-30T02:44:11;15.20;99.90
29201;DHT22;16244;51.956;12.980;2023-07-30T02:46:39;15.30;99.90
29201;DHT22;16244;51.956;12.980;2023-07-30T02:49:07;15.30;99.90
29201;DHT22;16244;51.956;12.980;2023-07-30T02:51:35;15.30;99.90
29201;DHT22;16244;51.956;12.980;2023-07-30T02:54:04;15.30;99.90
29201;DHT22;16244;51.956;12.980;2023-07-30T02:56:33;15.30;99.90
29201;DHT22;16244;51.956;12.980;2023-07-30T02:59:01;15.30;99.90
29201;DHT22;16244;51.956;12.980;2023-07-30T03:01:28;15.40;99.90
29201;DHT22;16244;51.956;12.980;2023-07-30T03:03:56;15.40;99.90
29201;DHT22;16244;51.956;12.980;2023-07-30T03:06:25;15.40;99.90
29201;DHT22;16244;51.956;12.980;2023-07-30T03:08:52;15.40;99.90
29201;DHT22;16244;51.956;12.980;2023-07-30T03:11:21;15.40;99.90
29201;DHT22;16244;51.956;12.980;2023-07-30T03:13:49;15.40;99.90
29201;DHT22;16244;51.956;12.980;2023-07-30T03:16:16;15.50;99.90
29201;DHT22;16244;51.956;12.980;2023-07-30T03:18:44;15.50;99.90
29201;DHT22;16244;51.956;12.980;2023-07-30T03:21:11;15.50;99.90
29201;DHT22;16244;51.956;12.980;2023-07-30T03:23:40;15.50;99.90
29201;DHT22;16244;51.956;12.980;2023-07-30T03:26:10;15.50;99.90
29201;DHT22;16244;51.956;12.980;2023-07-30T03:28:38;15.60;99.90
29201;DHT22;16244;51.956;12.980;2023-07-30T03:31:05;15.60;99.90
29201;DHT22;16244;51.956;12.980;2023-07-30T03:33:33;15.70;99.90
29201;DHT22;16244;51.956;12.980;2023-07-30T03:36:01;15.70;99.90
29201;DHT22;16244;51.956;12.980;2023-07-30T03:38:28;15.80;99.90
29201;DHT22;16244;51.956;12.980;2023-07-30T03:40:57;15.90;99.90
29201;DHT22;16244;51.956;12.980;2023-07-30T03:43:24;15.90;99.90
29201;DHT22;16244;51.956;12.980;2023-07-30T03:45:52;16.00;99.90
29201;DHT22;16244;51.956;12.980;2023-07-30T03:48:19;16.10;99.90
29201;DHT22;16244;51.956;12.980;2023-07-30T03:50:47;16.10;99.90
29201;DHT22;16244;51.956;12.980;2023-07-30T03:53:14;16.10;99.90
29201;DHT22;16244;51.956;12.980;2023-07-30T03:55:42;16.10;99.90
29201;DHT22;16244;51.956;12.980;2023-07-30T03:58:11;16.20;99.90
29201;DHT22;16244;51.956;12.980;2023-07-30T04:00:39;16.30;99.90
29201;DHT22;16244;51.956;12.980;2023-07-30T04:03:06;16.10;99.90
29201;DHT22;16244;51.956;12.980;2023-07-30T04:05:34;16.20;99.90
29201;DHT22;16244;51.956;12.980;2023-07-30T04:08:01;16.10;99.90
29201;DHT22;16244;51.956;12.980;2023-07-30T04:10:29;16.20;99.90
29201;DHT22;16244;51.956;12.980;2023-07-30T04:12:56;16.30;99.90
29201;DHT22;16244;51.956;12.980;2023-07-30T04:15:25;16.20;99.90
29201;DHT22;16244;51.956;12.980;2023-07-30T04:17:53;16.30;99.90
29201;DHT22;16244;51.956;12.980;2023-07-30T04:20:20;16.30;99.90
29201;DHT22;16244;51.956;12.980;2023-07-30T04:22:48;16.30;99.90
29201;DHT22;16244;51.956;12.980;2023-07-30T04:25:15;16.20;99.90
29201;DHT22;16244;51.956;12.980;2023-07-30T04:27:43;16.30;99.90
29201;DHT22;16244;51.956;12.980;2023-07-30T04:30:11;16.40;99.90
29201;DHT22;16244;51.956;12.980;2023-07-30T04:32:41;16.40;99.90
29201;DHT22;16244;51.956;12.980;2023-07-30T04:35:08;16.30;99.90
29201;DHT22;16244;51.956;12.980;2023-07-30T04:37:36;16.30;99.90
29201;DHT22;16244;51.956;12.980;2023-07-30T04:40:04;16.30;99.90
29201;DHT22;16244;51.956;12.980;2023-07-30T04:42:32;16.30;99.90
29201;DHT22;16244;51.956;12.980;2023-07-30T04:44:59;16.30;99.90
29201;DHT22;16244;51.956;12.980;2023-07-30T04:47:27;16.20;99.90
29201;DHT22;16244;51.956;12.980;2023-07-30T04:49:55;16.30;99.90
29201;DHT22;16244;51.956;12.980;2023-07-30T04:52:23;16.30;99.90
29201;DHT22;16244;51.956;12.980;2023-07-30T04:54:50;16.40;99.90
29201;DHT22;16244;51.956;12.980;2023-07-30T04:57:18;16.40;99.90
29201;DHT22;16244;51.956;12.980;2023-07-30T04:59:45;16.40;99.90
29201;DHT22;16244;51.956;12.980;2023-07-30T05:02:13;16.50;99.90
29201;DHT22;16244;51.956;12.980;2023-07-30T05:04:40;16.60;99.90
29201;DHT22;16244;51.956;12.980;2023-07-30T05:07:09;16.60;99.90
29201;DHT22;16244;51.956;12.980;2023-07-30T05:09:36;16.70;99.90
29201;DHT22;16244;51.956;12.980;2023-07-30T05:12:04;16.90;99.90
29201;DHT22;16244;51.956;12.980;2023-07-30T05:14:32;17.00;99.90
29201;DHT22;16244;51.956;12.980;2023-07-30T05:16:59;17.00;99.90
29201;DHT22;16244;51.956;12.980;2023-07-30T05:19:27;17.10;99.90
29201;DHT22;16244;51.956;12.980;2023-07-30T05:21:54;17.10;99.90
29201;DHT22;16244;51.956;12.980;2023-07-30T05:24:24;17.10;99.90
29201;DHT22;16244;51.956;12.980;2023-07-30T05:26:51;17.20;99.90
29201;DHT22;16244;51.956;12.980;2023-07-30T05:29:19;17.20;99.90
29201;DHT22;16244;51.956;12.980;2023-07-30T05:31:46;17.30;99.90
29201;DHT22;16244;51.956;12.980;2023-07-30T05:34:14;17.30;99.90
29201;DHT22;16244;51.956;12.980;2023-07-30T05:36:41;17.40;99.90
29201;DHT22;16244;51.956;12.980;2023-07-30T05:39:08;17.50;99.90
29201;DHT22;16244;51.956;12.980;2023-07-30T05:41:37;17.50;99.90
29201;DHT22;16244;51.956;12.980;2023-07-30T05:44:05;17.70;99.90
29201;DHT22;16244;51.956;12.980;2023-07-30T05:46:32;17.70;99.90
29201;DHT22;16244;51.956;12.980;2023-07-30T05:49:00;17.90;99.90
29201;DHT22;16244;51.956;12.980;2023-07-30T05:51:27;17.90;99.90
29201;DHT22;16244;51.956;12.980;2023-07-30T05:53:55;18.00;99.90
29201;DHT22;16244;51.956;12.980;2023-07-30T05:56:22;18.10;99.90
29201;DHT22;16244;51.956;12.980;2023-07-30T05:58:51;18.20;99.90
29201;DHT22;16244;51.956;12.980;2023-07-30T06:01:18;18.20;99.90
29201;DHT22;16244;51.956;12.980;2023-07-30T06:03:46;18.10;99.90
29201;DHT22;16244;51.956;12.980;2023-07-30T06:06:13;18.20;99.90
29201;DHT22;16244;51.956;12.980;2023-07-30T06:08:41;18.20;99.90
29201;DHT22;16244;51.956;12.980;2023-07-30T06:11:08;18.20;99.90
29201;DHT22;16244;51.956;12.980;2023-07-30T06:13:36;18.20;99.90
29201;DHT22;16244;51.956;12.980;2023-07-30T06:16:05;18.20;99.90
29201;DHT22;16244;51.956;12.980;2023-07-30T06:18:33;18.30;99.90
29201;DHT22;16244;51.956;12.980;2023-07-30T06:21:00;18.30;99.90
29201;DHT22;16244;51.956;12.980;2023-07-30T06:23:28;18.40;99.90
29201;DHT22;16244;51.956;12.980;2023-07-30T06:25:55;18.50;99.90
29201;DHT22;16244;51.956;12.980;2023-07-30T06:28:23;18.60;99.90
29201;DHT22;16244;51.956;12.980;2023-07-30T06:30:51;18.70;99.90
29201;DHT22;16244;51.956;12.980;2023-07-30T06:33:19;18.80;99.90
29201;DHT22;16244;51.956;12.980;2023-07-30T06:35:47;19.00;99.90
29201;DHT22;16244;51.956;12.980;2023-07-30T06:38:14;19.00;99.90
29201;DHT22;16244;51.956;12.980;2023-07-30T06:40:42;19.00;99.90
29201;DHT22;16244;51.956;12.980;2023-07-30T06:43:09;19.10;99.90
29201;DHT22;16244;51.956;12.980;2023-07-30T06:45:37;19.10;99.90
29201;DHT22;16244;51.956;12.980;2023-07-30T06:48:05;19.30;99.90
29201;DHT22;16244;51.956;12.980;2023-07-30T06:50:34;19.30;99.90
29201;DHT22;16244;51.956;12.980;2023-07-30T06:53:01;19.40;99.90
29201;DHT22;16244;51.956;12.980;2023-07-30T06:55:28;19.50;99.90
29201;DHT22;16244;51.956;12.980;2023-07-30T06:57:56;19.60;99.90
29201;DHT22;16244;51.956;12.980;2023-07-30T07:00:23;19.70;99.90
29201;DHT22;16244;51.956;12.980;2023-07-30T07:02:51;19.80;99.90
29201;DHT22;16244;51.956;12.980;2023-07-30T07:05:18;19.90;99.90
29201;DHT22;16244;51.956;12.980;2023-07-30T07:07:47;20.10;99.90
29201;DHT22;16244;51.956;12.980;2023-07-30T07:10:15;20.30;99.90
29201;DHT22;16244;51.956;12.980;2023-07-30T07:12:42;20.50;99.90
29201;DHT22;16244;51.956;12.980;2023-07-30T07:15:10;20.60;99.90
29201;DHT22;16244;51.956;12.980;2023-07-30T07:17:37;20.90;99.90
29201;DHT22;16244;51.956;12.980;2023-07-30T07:20:06;20.90;99.90
29201;DHT22;16244;51.956;12.980;2023-07-30T07:22:34;21.10;99.90
29201;DHT22;16244;51.956;12.980;2023-07-30T07:25:03;21.20;99.90
29201;DHT22;16244;51.956;12.980;2023-07-30T07:27:31;21.50;99.90
29201;DHT22;16244;51.956;12.980;2023-07-30T07:29:59;21.70;99.90
29201;DHT22;16244;51.956;12.980;2023-07-30T07:32:27;21.90;99.90
29201;DHT22;16244;51.956;12.980;2023-07-30T07:34:54;22.00;99.90
29201;DHT22;16244;51.956;12.980;2023-07-30T07:37:22;22.20;99.90
29201;DHT22;16244;51.956;12.980;2023-07-30T07:39:49;22.30;96.50
29201;DHT22;16244;51.956;12.980;2023-07-30T07:42:19;22.40;95.20
29201;DHT22;16244;51.956;12.980;2023-07-30T07:44:46;22.40;94.30
29201;DHT22;16244;51.956;12.980;2023-07-30T07:47:14;22.70;93.10
29201;DHT22;16244;51.956;12.980;2023-07-30T07:49:42;22.90;92.50
29201;DHT22;16244;51.956;12.980;2023-07-30T07:52:09;23.00;93.60
29201;DHT22;16244;51.956;12.980;2023-07-30T07:54:37;23.10;93.00
29201;DHT22;16244;51.956;12.980;2023-07-30T07:57:05;23.30;91.60
29201;DHT22;16244;51.956;12.980;2023-07-30T07:59:34;23.30;92.20
29201;DHT22;16244;51.956;12.980;2023-07-30T08:02:01;23.40;88.30
29201;DHT22;16244;51.956;12.980;2023-07-30T08:04:29;23.50;87.50
29201;DHT22;16244;51.956;12.980;2023-07-30T08:06:56;23.60;88.50
29201;DHT22;16244;51.956;12.980;2023-07-30T08:09:26;23.80;81.70
29201;DHT22;16244;51.956;12.980;2023-07-30T08:11:53;24.00;74.80
29201;DHT22;16244;51.956;12.980;2023-07-30T08:14:22;23.90;77.20
29201;DHT22;16244;51.956;12.980;2023-07-30T08:16:50;24.20;78.00
29201;DHT22;16244;51.956;12.980;2023-07-30T08:19:18;24.30;83.40
29201;DHT22;16244;51.956;12.980;2023-07-30T08:21:45;24.50;78.20
29201;DHT22;16244;51.956;12.980;2023-07-30T08:24:13;24.70;76.60
29201;DHT22;16244;51.956;12.980;2023-07-30T08:26:40;24.30;64.80
29201;DHT22;16244;51.956;12.980;2023-07-30T08:29:08;24.30;74.40
29201;DHT22;16244;51.956;12.980;2023-07-30T08:31:36;24.10;68.60
29201;DHT22;16244;51.956;12.980;2023-07-30T08:34:05;23.70;77.10
29201;DHT22;16244;51.956;12.980;2023-07-30T08:36:32;23.40;77.50
29201;DHT22;16244;51.956;12.980;2023-07-30T08:39:01;23.40;79.30
29201;DHT22;16244;51.956;12.980;2023-07-30T08:41:29;23.50;72.10
29201;DHT22;16244;51.956;12.980;2023-07-30T08:43:58;23.50;69.80
29201;DHT22;16244;51.956;12.980;2023-07-30T08:46:30;23.50;74.00
29201;DHT22;16244;51.956;12.980;2023-07-30T08:48:57;23.70;70.00
29201;DHT22;16244;51.956;12.980;2023-07-30T08:51:26;24.00;72.90
29201;DHT22;16244;51.956;12.980;2023-07-30T08:53:56;24.20;66.30
29201;DHT22;16244;51.956;12.980;2023-07-30T08:56:24;24.40;67.40
29201;DHT22;16244;51.956;12.980;2023-07-30T08:58:54;24.60;70.70
29201;DHT22;16244;51.956;12.980;2023-07-30T09:01:25;24.70;68.20
29201;DHT22;16244;51.956;12.980;2023-07-30T09:03:54;24.90;72.40
29201;DHT22;16244;51.956;12.980;2023-07-30T09:06:22;25.60;74.70
29201;DHT22;16244;51.956;12.980;2023-07-30T09:08:51;25.70;60.60
29201;DHT22;16244;51.956;12.980;2023-07-30T09:11:18;25.90;58.90
29201;DHT22;16244;51.956;12.980;2023-07-30T09:13:46;25.90;58.40
29201;DHT22;16244;51.956;12.980;2023-07-30T09:16:15;25.60;63.20
29201;DHT22;16244;51.956;12.980;2023-07-30T09:18:43;25.50;66.80
29201;DHT22;16244;51.956;12.980;2023-07-30T09:21:11;25.50;63.60
29201;DHT22;16244;51.956;12.980;2023-07-30T09:23:40;24.90;59.90
29201;DHT22;16244;51.956;12.980;2023-07-30T09:26:10;24.80;69.50
29201;DHT22;16244;51.956;12.980;2023-07-30T09:28:38;24.70;64.20
29201;DHT22;16244;51.956;12.980;2023-07-30T09:31:07;25.30;66.70
29201;DHT22;16244;51.956;12.980;2023-07-30T09:33:40;25.90;66.30
29201;DHT22;16244;51.956;12.980;2023-07-30T09:36:08;26.50;57.10
29201;DHT22;16244;51.956;12.980;2023-07-30T09:38:39;27.00;55.40
29201;DHT22;16244;51.956;12.980;2023-07-30T09:41:06;26.40;53.90
29201;DHT22;16244;51.956;12.980;2023-07-30T09:43:35;26.70;54.90
29201;DHT22;16244;51.956;12.980;2023-07-30T09:46:04;27.10;51.30
29201;DHT22;16244;51.956;12.980;2023-07-30T09:48:33;27.50;53.70
29201;DHT22;16244;51.956;12.980;2023-07-30T09:51:03;27.90;53.20
29201;DHT22;16244;51.956;12.980;2023-07-30T09:53:33;27.40;49.30
29201;DHT22;16244;51.956;12.980;2023-07-30T09:56:02;27.10;50.30
29201;DHT22;16244;51.956;12.980;2023-07-30T09:58:30;26.60;52.80
29201;DHT22;16244;51.956;12.980;2023-07-30T10:01:00;26.60;48.70
29201;DHT22;16244;51.956;12.980;2023-07-30T10:03:28;26.60;48.30
29201;DHT22;16244;51.956;12.980;2023-07-30T10:06:00;26.80;47.70
29201;DHT22;16244;51.956;12.980;2023-07-30T10:08:34;26.90;46.60
29201;DHT22;16244;51.956;12.980;2023-07-30T10:11:05;26.80;50.00
29201;DHT22;16244;51.956;12.980;2023-07-30T10:13:34;26.70;48.70
29201;DHT22;16244;51.956;12.980;2023-07-30T10:16:09;26.60;49.80
29201;DHT22;16244;51.956;12.980;2023-07-30T10:18:38;27.10;50.90
29201;DHT22;16244;51.956;12.980;2023-07-30T10:21:07;27.00;47.50
29201;DHT22;16244;51.956;12.980;2023-07-30T10:23:35;27.10;46.50
29201;DHT22;16244;51.956;12.980;2023-07-30T10:26:09;27.60;46.50
29201;DHT22;16244;51.956;12.980;2023-07-30T10:28:37;27.90;44.50
29201;DHT22;16244;51.956;12.980;2023-07-30T10:31:07;27.80;47.60
29201;DHT22;16244;51.956;12.980;2023-07-30T10:33:46;28.30;45.00
29201;DHT22;16244;51.956;12.980;2023-07-30T10:36:17;28.70;46.10
29201;DHT22;16244;51.956;12.980;2023-07-30T10:38:45;27.90;43.20
29201;DHT22;16244;51.956;12.980;2023-07-30T10:41:14;27.90;48.50
29201;DHT22;16244;51.956;12.980;2023-07-30T10:43:46;28.30;46.80
29201;DHT22;16244;51.956;12.980;2023-07-30T10:46:16;28.20;44.30
29201;DHT22;16244;51.956;12.980;2023-07-30T10:48:46;27.90;46.70
29201;DHT22;16244;51.956;12.980;2023-07-30T10:51:15;27.60;45.30
29201;DHT22;16244;51.956;12.980;2023-07-30T10:53:43;27.00;46.20
29201;DHT22;16244;51.956;12.980;2023-07-30T10:56:12;26.70;48.10
29201;DHT22;16244;51.956;12.980;2023-07-30T10:58:40;26.90;48.70
29201;DHT22;16244;51.956;12.980;2023-07-30T11:01:08;27.10;48.10
29201;DHT22;16244;51.956;12.980;2023-07-30T11:03:37;27.40;46.20
29201;DHT22;16244;51.956;12.980;2023-07-30T11:06:05;27.40;44.00
29201;DHT22;16244;51.956;12.980;2023-07-30T11:08:35;27.50;42.00
29201;DHT22;16244;51.956;12.980;2023-07-30T11:11:04;27.20;43.10
29201;DHT22;16244;51.956;12.980;2023-07-30T11:13:35;27.30;44.10
29201;DHT22;16244;51.956;12.980;2023-07-30T11:16:04;27.40;43.60
29201;DHT22;16244;51.956;12.980;2023-07-30T11:18:33;27.40;43.20
29201;DHT22;16244;51.956;12.980;2023-07-30T11:21:06;27.60;45.00
29201;DHT22;16244;51.956;12.980;2023-07-30T11:23:35;27.80;45.20
29201;DHT22;16244;51.956;12.980;2023-07-30T11:26:04;28.10;43.70
29201;DHT22;16244;51.956;12.980;2023-07-30T11:28:33;28.10;41.20
29201;DHT22;16244;51.956;12.980;2023-07-30T11:31:03;28.30;43.70
29201;DHT22;16244;51.956;12.980;2023-07-30T11:33:32;28.10;42.50
29201;DHT22;16244;51.956;12.980;2023-07-30T11:36:01;28.20;39.60
29201;DHT22;16244;51.956;12.980;2023-07-30T11:38:31;28.20;40.70
29201;DHT22;16244;51.956;12.980;2023-07-30T11:40:59;28.00;42.30
29201;DHT22;16244;51.956;12.980;2023-07-30T11:43:27;27.60;41.40
29201;DHT22;16244;51.956;12.980;2023-07-30T11:46:11;27.30;41.20
29201;DHT22;16244;51.956;12.980;2023-07-30T11:48:41;27.10;41.10
29201;DHT22;16244;51.956;12.980;2023-07-30T11:51:19;27.00;41.60
29201;DHT22;16244;51.956;12.980;2023-07-30T11:53:52;26.90;40.40
29201;DHT22;16244;51.956;12.980;2023-07-30T11:56:21;26.90;39.60
29201;DHT22;16244;51.956;12.980;2023-07-30T11:58:50;27.10;42.70
29201;DHT22;16244;51.956;12.980;2023-07-30T12:01:18;27.10;40.90
29201;DHT22;16244;51.956;12.980;2023-07-30T12:03:46;27.10;40.90
29201;DHT22;16244;51.956;12.980;2023-07-30T12:06:13;27.20;41.10
29201;DHT22;16244;51.956;12.980;2023-07-30T12:08:41;27.00;41.00
29201;DHT22;16244;51.956;12.980;2023-07-30T12:11:10;26.70;41.10
29201;DHT22;16244;51.956;12.980;2023-07-30T12:13:44;26.80;44.10
29201;DHT22;16244;51.956;12.980;2023-07-30T12:16:13;26.70;45.30
29201;DHT22;16244;51.956;12.980;2023-07-30T12:18:41;26.30;43.80
29201;DHT22;16244;51.956;12.980;2023-07-30T12:21:08;25.90;44.70
29201;DHT22;16244;51.956;12.980;2023-07-30T12:23:37;25.70;47.30
29201;DHT22;16244;51.956;12.980;2023-07-30T12:26:05;25.50;46.70
29201;DHT22;16244;51.956;12.980;2023-07-30T12:28:34;25.50;46.70
29201;DHT22;16244;51.956;12.980;2023-07-30T12:31:01;25.50;47.40
29201;DHT22;16244;51.956;12.980;2023-07-30T12:33:29;25.50;47.70
29201;DHT22;16244;51.956;12.980;2023-07-30T12:35:56;25.30;47.10
29201;DHT22;16244;51.956;12.980;2023-07-30T12:38:25;25.40;48.00
29201;DHT22;16244;51.956;12.980;2023-07-30T12:40:52;25.30;47.30
29201;DHT22;16244;51.956;12.980;2023-07-30T12:43:20;24.80;48.40
29201;DHT22;16244;51.956;12.980;2023-07-30T12:45:49;24.80;47.40
29201;DHT22;16244;51.956;12.980;2023-07-30T12:48:17;24.60;47.70
29201;DHT22;16244;51.956;12.980;2023-07-30T12:50:45;24.90;49.90
29201;DHT22;16244;51.956;12.980;2023-07-30T12:53:12;25.20;46.90
29201;DHT22;16244;51.956;12.980;2023-07-30T12:55:40;25.40;45.80
29201;DHT22;16244;51.956;12.980;2023-07-30T12:58:08;25.50;48.00
29201;DHT22;16244;51.956;12.980;2023-07-30T13:00:35;25.50;47.10
29201;DHT22;16244;51.956;12.980;2023-07-30T13:03:04;25.30;46.20
29201;DHT22;16244;51.956;12.980;2023-07-30T13:05:32;25.00;48.70
29201;DHT22;16244;51.956;12.980;2023-07-30T13:07:59;25.00;51.20
29201;DHT22;16244;51.956;12.980;2023-07-30T13:10:27;24.60;52.20
29201;DHT22;16244;51.956;12.980;2023-07-30T13:12:55;24.30;53.70
29201;DHT22;16244;51.956;12.980;2023-07-30T13:15:23;24.40;57.10
29201;DHT22;16244;51.956;12.980;2023-07-30T13:17:50;24.30;57.00
29201;DHT22;16244;51.956;12.980;2023-07-30T13:20:19;24.20;54.70
29201;DHT22;16244;51.956;12.980;2023-07-30T13:22:47;24.30;53.30
29201;DHT22;16244;51.956;12.980;2023-07-30T13:25:14;24.20;53.60
29201;DHT22;16244;51.956;12.980;2023-07-30T13:27:42;24.20;52.20
29201;DHT22;16244;51.956;12.980;2023-07-30T13:30:10;24.10;53.40
29201;DHT22;16244;51.956;12.980;2023-07-30T13:32:37;24.00;51.90
29201;DHT22;16244;51.956;12.980;2023-07-30T13:35:05;23.90;53.70
29201;DHT22;16244;51.956;12.980;2023-07-30T13:37:34;24.00;59.50
29201;DHT22;16244;51.956;12.980;2023-07-30T13:40:02;24.00;54.10
29201;DHT22;16244;51.956;12.980;2023-07-30T13:42:29;23.90;54.30
29201;DHT22;16244;51.956;12.980;2023-07-30T13:44:57;23.80;56.40
29201;DHT22;16244;51.956;12.980;2023-07-30T13:47:26;23.70;56.70
29201;DHT22;16244;51.956;12.980;2023-07-30T13:49:54;23.50;59.80
29201;DHT22;16244;51.956;12.980;2023-07-30T13:52:21;23.30;60.70
29201;DHT22;16244;51.956;12.980;2023-07-30T13:54:50;23.30;61.40
29201;DHT22;16244;51.956;12.980;2023-07-30T13:57:21;23.20;64.80
29201;DHT22;16244;51.956;12.980;2023-07-30T13:59:49;23.00;65.50
29201;DHT22;16244;51.956;12.980;2023-07-30T14:02:17;22.80;63.20
29201;DHT22;16244;51.956;12.980;2023-07-30T14:04:44;22.60;63.10
29201;DHT22;16244;51.956;12.980;2023-07-30T14:07:12;22.20;68.40
29201;DHT22;16244;51.956;12.980;2023-07-30T14:09:39;21.90;76.50
29201;DHT22;16244;51.956;12.980;2023-07-30T14:12:10;21.60;86.10
29201;DHT22;16244;51.956;12.980;2023-07-30T14:14:37;21.20;93.20
29201;DHT22;16244;51.956;12.980;2023-07-30T14:17:05;20.90;97.70
29201;DHT22;16244;51.956;12.980;2023-07-30T14:19:33;20.50;98.10
29201;DHT22;16244;51.956;12.980;2023-07-30T14:22:01;20.10;99.90
29201;DHT22;16244;51.956;12.980;2023-07-30T14:24:29;20.00;99.90
29201;DHT22;16244;51.956;12.980;2023-07-30T14:26:56;20.00;99.90
29201;DHT22;16244;51.956;12.980;2023-07-30T14:29:25;19.90;99.90
29201;DHT22;16244;51.956;12.980;2023-07-30T14:31:52;19.90;99.90
29201;DHT22;16244;51.956;12.980;2023-07-30T14:34:20;19.90;99.90
29201;DHT22;16244;51.956;12.980;2023-07-30T14:36:47;20.00;99.90
29201;DHT22;16244;51.956;12.980;2023-07-30T14:39:15;19.90;99.90
29201;DHT22;16244;51.956;12.980;2023-07-30T14:41:42;19.90;99.90
29201;DHT22;16244;51.956;12.980;2023-07-30T14:44:09;19.80;99.90
29201;DHT22;16244;51.956;12.980;2023-07-30T14:46:38;19.90;99.90
29201;DHT22;16244;51.956;12.980;2023-07-30T14:49:06;20.00;99.90
29201;DHT22;16244;51.956;12.980;2023-07-30T14:51:34;20.10;99.90
29201;DHT22;16244;51.956;12.980;2023-07-30T14:54:01;20.10;99.90
29201;DHT22;16244;51.956;12.980;2023-07-30T14:56:29;20.10;99.90
29201;DHT22;16244;51.956;12.980;2023-07-30T14:58:57;20.10;99.90
29201;DHT22;16244;51.956;12.980;2023-07-30T15:01:28;20.30;99.90
29201;DHT22;16244;51.956;12.980;2023-07-30T15:03:57;20.30;99.90
29201;DHT22;16244;51.956;12.980;2023-07-30T15:06:25;20.30;99.90
29201;DHT22;16244;51.956;12.980;2023-07-30T15:08:55;20.20;99.90
29201;DHT22;16244;51.956;12.980;2023-07-30T15:11:22;20.30;99.90
29201;DHT22;16244;51.956;12.980;2023-07-30T15:13:50;20.10;99.90
29201;DHT22;16244;51.956;12.980;2023-07-30T15:16:17;20.20;99.90
29201;DHT22;16244;51.956;12.980;2023-07-30T15:18:45;20.20;99.90
29201;DHT22;16244;51.956;12.980;2023-07-30T15:21:14;20.30;99.90